createdAt,value
2022-07-28T00:01:16.474Z,17.70
2022-07-28T00:03:48.755Z,17.62
2022-07-28T00:06:16.933Z,17.54
2022-07-28T00:08:44.991Z,17.47
2022-07-28T00:11:14.821Z,17.50
2022-07-28T00:13:42.906Z,17.37
2022-07-28T00:16:11.192Z,17.31
2022-07-28T00:18:39.326Z,17.37
2022-07-28T00:21:07.392Z,17.19
2022-07-28T00:23:39.221Z,17.07
2022-07-28T00:26:08.727Z,17.12
2022-07-28T00:28:38.387Z,17.06
2022-07-28T00:31:08.710Z,17.09
2022-07-28T00:33:40.047Z,17.00
2022-07-28T00:36:08.809Z,17.24
2022-07-28T00:38:40.793Z,17.12
2022-07-28T00:41:12.588Z,17.03
2022-07-28T00:43:43.151Z,16.81
2022-07-28T00:46:11.410Z,16.77
2022-07-28T00:48:40.297Z,16.61
2022-07-28T00:51:09.085Z,16.51
2022-07-28T00:53:37.768Z,16.55
2022-07-28T00:56:07.056Z,16.66
2022-07-28T00:58:35.871Z,16.67
2022-07-28T01:01:05.964Z,16.71
2022-07-28T01:03:35.732Z,16.60
2022-07-28T01:06:17.578Z,16.45
2022-07-28T01:08:57.662Z,16.32
2022-07-28T01:11:42.836Z,16.16
2022-07-28T01:14:22.347Z,16.17
2022-07-28T01:16:57.573Z,16.08
2022-07-28T01:19:37.617Z,15.90
2022-07-28T01:22:10.499Z,15.75
2022-07-28T01:24:52.143Z,15.59
2022-07-28T01:27:36.448Z,15.51
2022-07-28T01:30:08.738Z,15.40
2022-07-28T01:32:43.730Z,15.38
2022-07-28T01:35:15.329Z,15.19
2022-07-28T01:37:47.093Z,14.99
2022-07-28T01:40:18.658Z,14.83
2022-07-28T01:42:52.309Z,14.72
2022-07-28T01:45:21.678Z,14.75
2022-07-28T01:47:52.690Z,14.73
2022-07-28T01:50:23.759Z,14.94
2022-07-28T01:52:52.733Z,14.89
2022-07-28T01:55:23.190Z,14.84
2022-07-28T01:57:54.216Z,14.80
2022-07-28T02:00:23.661Z,14.84
2022-07-28T02:02:54.840Z,14.83
2022-07-28T02:05:24.342Z,14.87
2022-07-28T02:07:54.288Z,14.84
2022-07-28T02:10:22.507Z,14.82
2022-07-28T02:12:52.731Z,14.81
2022-07-28T02:15:22.753Z,14.75
2022-07-28T02:17:55.008Z,14.61
2022-07-28T02:20:23.746Z,14.50
2022-07-28T02:22:54.126Z,14.47
2022-07-28T02:25:22.782Z,14.59
2022-07-28T02:27:54.292Z,14.76
2022-07-28T02:30:29.282Z,14.85
2022-07-28T02:33:03.436Z,14.86
2022-07-28T02:35:38.853Z,14.80
2022-07-28T02:38:12.716Z,14.69
2022-07-28T02:40:43.971Z,14.60
2022-07-28T02:43:15.525Z,14.51
2022-07-28T02:45:46.731Z,14.47
2022-07-28T02:48:18.517Z,14.39
2022-07-28T02:50:47.898Z,14.37
2022-07-28T02:53:17.622Z,14.51
2022-07-28T02:55:48.754Z,14.58
2022-07-28T02:58:19.342Z,14.59
2022-07-28T03:00:48.908Z,14.66
2022-07-28T03:03:19.666Z,14.77
2022-07-28T03:05:48.563Z,14.69
2022-07-28T03:08:17.994Z,14.62
2022-07-28T03:10:46.499Z,14.63
2022-07-28T03:13:14.711Z,14.60
2022-07-28T03:15:42.785Z,14.49
2022-07-28T03:18:10.887Z,14.52
2022-07-28T03:20:40.244Z,14.48
2022-07-28T03:23:09.945Z,14.52
2022-07-28T03:25:44.435Z,14.50
2022-07-28T03:28:17.659Z,14.46
2022-07-28T03:30:51.563Z,14.49
2022-07-28T03:33:19.877Z,14.38
2022-07-28T03:35:52.679Z,14.52
2022-07-28T03:38:24.751Z,14.67
2022-07-28T03:40:54.977Z,14.78
2022-07-28T03:43:26.117Z,14.68
2022-07-28T03:45:54.306Z,14.79
2022-07-28T03:48:24.363Z,14.90
2022-07-28T03:50:53.706Z,14.84
2022-07-28T03:53:23.788Z,14.94
2022-07-28T03:55:51.902Z,15.12
2022-07-28T03:58:19.907Z,15.30
2022-07-28T04:00:48.283Z,15.38
2022-07-28T04:03:22.701Z,15.44
2022-07-28T04:06:06.389Z,15.67
2022-07-28T04:08:34.961Z,15.78
2022-07-28T04:11:03.017Z,15.83
2022-07-28T04:13:32.134Z,15.93
2022-07-28T04:16:00.562Z,15.89
2022-07-28T04:18:28.542Z,15.89
2022-07-28T04:20:56.683Z,15.88
2022-07-28T04:23:26.314Z,15.90
2022-07-28T04:25:54.368Z,15.81
2022-07-28T04:28:22.365Z,15.76
2022-07-28T04:30:50.800Z,15.65
2022-07-28T04:33:19.646Z,15.68
2022-07-28T04:35:47.838Z,15.71
2022-07-28T04:38:17.773Z,15.72
2022-07-28T04:40:47.760Z,15.73
2022-07-28T04:43:16.328Z,15.70
2022-07-28T04:45:53.248Z,15.68
2022-07-28T04:48:23.103Z,15.76
2022-07-28T04:50:52.765Z,15.76
2022-07-28T04:53:21.400Z,15.80
2022-07-28T04:55:54.617Z,15.85
2022-07-28T04:58:23.562Z,15.93
2022-07-28T05:00:52.382Z,15.97
2022-07-28T05:03:21.251Z,15.99
2022-07-28T05:05:54.310Z,15.96
2022-07-28T05:08:25.830Z,16.01
2022-07-28T05:10:56.860Z,16.03
2022-07-28T05:13:28.917Z,16.13
2022-07-28T05:16:01.476Z,16.19
2022-07-28T05:18:29.567Z,16.29
2022-07-28T05:20:57.565Z,16.42
2022-07-28T05:23:25.487Z,16.60
2022-07-28T05:25:53.779Z,16.75
2022-07-28T05:28:23.179Z,16.85
2022-07-28T05:30:51.250Z,16.92
2022-07-28T05:33:19.379Z,17.04
2022-07-28T05:35:53.253Z,17.04
2022-07-28T05:38:21.678Z,17.21
2022-07-28T05:40:50.383Z,17.38
2022-07-28T05:43:18.458Z,17.42
2022-07-28T05:45:48.395Z,17.47
2022-07-28T05:48:18.288Z,17.48
2022-07-28T05:50:46.467Z,17.61
2022-07-28T05:53:14.530Z,17.83
2022-07-28T05:55:59.689Z,17.81
2022-07-28T05:58:29.713Z,17.86
2022-07-28T06:01:01.422Z,18.06
2022-07-28T06:03:31.889Z,18.06
2022-07-28T06:06:15.272Z,17.97
2022-07-28T06:08:46.429Z,18.13
2022-07-28T06:11:22.114Z,18.09
2022-07-28T06:13:52.032Z,18.06
2022-07-28T06:16:22.806Z,18.15
2022-07-28T06:18:51.635Z,18.34
2022-07-28T06:21:19.643Z,18.51
2022-07-28T06:23:47.623Z,18.98
2022-07-28T06:26:15.722Z,19.30
2022-07-28T06:28:43.856Z,19.62
2022-07-28T06:31:11.881Z,19.74
2022-07-28T06:33:41.277Z,19.75
2022-07-28T06:36:09.269Z,19.91
2022-07-28T06:38:37.348Z,20.18
2022-07-28T06:41:05.471Z,20.47
2022-07-28T06:43:38.288Z,20.68
2022-07-28T06:46:07.295Z,20.97
2022-07-28T06:48:37.518Z,21.03
2022-07-28T06:51:07.196Z,21.09
2022-07-28T06:53:35.084Z,21.29
2022-07-28T06:56:04.627Z,21.42
2022-07-28T06:58:33.395Z,21.43
2022-07-28T07:01:02.477Z,21.42
2022-07-28T07:03:30.776Z,21.67
2022-07-28T07:05:58.809Z,22.20
2022-07-28T07:08:28.217Z,22.70
2022-07-28T07:10:56.832Z,22.92
2022-07-28T07:13:25.137Z,22.69
2022-07-28T07:15:53.339Z,22.54
2022-07-28T07:18:21.538Z,22.68
2022-07-28T07:20:49.975Z,22.43
2022-07-28T07:23:17.899Z,22.41
2022-07-28T07:25:47.279Z,22.84
2022-07-28T07:28:15.299Z,23.18
2022-07-28T07:30:43.482Z,23.72
2022-07-28T07:33:11.480Z,24.12
2022-07-28T07:35:39.648Z,24.11
2022-07-28T07:38:07.640Z,24.11
2022-07-28T07:40:35.950Z,24.03
2022-07-28T07:43:05.429Z,24.39
2022-07-28T07:45:34.281Z,23.94
2022-07-28T07:48:02.667Z,24.23
2022-07-28T07:50:31.215Z,24.35
2022-07-28T07:52:59.427Z,25.26
2022-07-28T07:55:27.509Z,25.40
2022-07-28T07:58:02.566Z,25.37
2022-07-28T08:00:32.338Z,25.81
2022-07-28T08:03:00.979Z,26.50
2022-07-28T08:05:35.879Z,26.56
2022-07-28T08:08:06.155Z,27.15
2022-07-28T08:10:34.374Z,26.20
2022-07-28T08:13:03.069Z,24.96
2022-07-28T08:15:32.567Z,25.26
2022-07-28T08:18:00.729Z,24.97
2022-07-28T08:20:29.091Z,25.15
2022-07-28T08:22:58.785Z,26.25
2022-07-28T08:25:27.310Z,26.17
2022-07-28T08:27:55.657Z,26.26
2022-07-28T08:30:27.476Z,25.85
2022-07-28T08:32:59.677Z,26.74
2022-07-28T08:35:33.655Z,27.62
2022-07-28T08:38:03.392Z,27.75
2022-07-28T08:40:32.732Z,28.61
2022-07-28T08:43:09.780Z,28.34
2022-07-28T08:45:40.421Z,27.94
2022-07-28T08:48:13.860Z,28.99
2022-07-28T08:50:44.868Z,28.71
2022-07-28T08:53:15.022Z,29.42
2022-07-28T08:55:44.943Z,29.86
2022-07-28T08:58:13.433Z,29.55
2022-07-28T09:00:42.465Z,29.16
2022-07-28T09:03:13.821Z,28.88
2022-07-28T09:05:43.561Z,29.25
2022-07-28T09:08:12.303Z,29.65
2022-07-28T09:10:40.357Z,29.56
2022-07-28T09:13:08.361Z,29.19
2022-07-28T09:15:37.565Z,29.12
2022-07-28T09:18:05.580Z,29.65
2022-07-28T09:20:36.819Z,30.10
2022-07-28T09:23:33.623Z,29.49
2022-07-28T09:26:10.828Z,29.51
2022-07-28T09:28:53.733Z,30.52
2022-07-28T09:31:23.707Z,30.20
2022-07-28T09:34:01.298Z,30.11
2022-07-28T09:36:37.921Z,30.02
2022-07-28T09:39:06.028Z,30.34
2022-07-28T09:41:47.626Z,29.90
2022-07-28T09:44:19.616Z,30.16
2022-07-28T09:46:48.112Z,30.60
2022-07-28T09:49:16.560Z,30.61
2022-07-28T09:52:00.400Z,29.31
2022-07-28T09:54:28.404Z,30.57
2022-07-28T09:56:56.628Z,30.61
2022-07-28T09:59:25.879Z,31.21
2022-07-28T10:02:01.568Z,31.71
2022-07-28T10:04:32.493Z,31.16
2022-07-28T10:07:07.032Z,32.23
2022-07-28T10:09:38.388Z,31.61
2022-07-28T10:12:20.189Z,31.24
2022-07-28T10:14:48.737Z,31.33
2022-07-28T10:17:29.080Z,30.33
2022-07-28T10:19:58.801Z,30.90
2022-07-28T10:22:32.891Z,30.54
2022-07-28T10:25:03.342Z,29.56
2022-07-28T10:27:32.611Z,30.12
2022-07-28T10:30:02.316Z,29.27
2022-07-28T10:32:37.341Z,28.86
2022-07-28T10:35:08.781Z,29.25
2022-07-28T10:37:40.597Z,29.18
2022-07-28T10:40:11.042Z,29.99
2022-07-28T10:42:40.748Z,31.22
2022-07-28T10:45:12.026Z,31.43
2022-07-28T10:47:40.408Z,31.88
2022-07-28T10:50:09.541Z,31.22
2022-07-28T10:52:50.569Z,31.32
2022-07-28T10:55:31.726Z,32.01
2022-07-28T10:58:11.109Z,32.86
2022-07-28T11:00:55.871Z,31.79
2022-07-28T11:03:44.344Z,30.06
2022-07-28T11:06:27.104Z,29.33
2022-07-28T11:08:57.471Z,29.10
2022-07-28T11:11:45.107Z,29.59
2022-07-28T11:14:33.765Z,29.40
2022-07-28T11:17:24.092Z,29.39
2022-07-28T11:20:26.702Z,28.76
2022-07-28T11:22:49.126Z,29.39
2022-07-28T11:25:22.426Z,29.13
2022-07-28T11:28:01.192Z,30.35
2022-07-28T11:31:02.481Z,30.55
2022-07-28T11:33:57.442Z,31.63
2022-07-28T11:36:25.484Z,33.20
2022-07-28T11:39:22.706Z,34.08
2022-07-28T11:41:52.099Z,32.28
2022-07-28T11:44:28.241Z,31.31
2022-07-28T11:47:17.020Z,31.25
2022-07-28T11:49:46.131Z,31.05
2022-07-28T11:52:21.673Z,30.89
2022-07-28T11:54:56.446Z,30.47
2022-07-28T11:57:27.630Z,31.40
2022-07-28T12:00:03.391Z,31.69
2022-07-28T12:02:35.305Z,33.02
2022-07-28T12:05:10.706Z,33.92
2022-07-28T12:07:42.098Z,33.41
2022-07-28T12:10:53.501Z,32.08
2022-07-28T12:13:27.031Z,30.39
2022-07-28T12:15:55.221Z,29.32
2022-07-28T12:18:24.591Z,29.93
2022-07-28T12:20:54.673Z,30.12
2022-07-28T12:23:38.800Z,29.60
2022-07-28T12:26:13.417Z,29.48
2022-07-28T12:28:50.620Z,30.41
2022-07-28T12:31:18.715Z,30.69
2022-07-28T12:33:46.754Z,30.91
2022-07-28T12:36:18.738Z,31.67
2022-07-28T12:38:47.286Z,31.78
2022-07-28T12:41:16.484Z,31.23
2022-07-28T12:43:52.929Z,30.67
2022-07-28T12:46:23.069Z,31.95
2022-07-28T12:48:55.649Z,30.37
2022-07-28T12:51:34.717Z,30.47
2022-07-28T12:54:03.153Z,30.84
2022-07-28T12:56:31.851Z,30.11
2022-07-28T12:59:10.095Z,30.70
2022-07-28T13:01:52.191Z,31.79
2022-07-28T13:04:38.883Z,32.92
2022-07-28T13:07:09.748Z,33.33
2022-07-28T13:09:41.447Z,33.37
2022-07-28T13:12:17.270Z,32.11
2022-07-28T13:14:51.746Z,31.33
2022-07-28T13:17:20.379Z,32.49
2022-07-28T13:19:49.422Z,32.62
2022-07-28T13:22:26.792Z,32.34
2022-07-28T13:24:56.828Z,32.36
2022-07-28T13:27:33.023Z,32.03
2022-07-28T13:30:02.430Z,31.28
2022-07-28T13:32:31.231Z,31.45
2022-07-28T13:34:59.238Z,31.87
2022-07-28T13:37:27.491Z,31.05
2022-07-28T13:39:55.556Z,30.03
2022-07-28T13:42:23.975Z,30.17
2022-07-28T13:44:52.176Z,30.47
2022-07-28T13:47:21.532Z,30.15
2022-07-28T13:49:49.594Z,31.54
2022-07-28T13:52:32.951Z,32.28
2022-07-28T13:55:05.881Z,32.07
2022-07-28T13:57:36.380Z,31.53
2022-07-28T14:00:07.566Z,30.46
2022-07-28T14:02:37.399Z,30.83
2022-07-28T14:05:06.241Z,31.42
2022-07-28T14:07:34.286Z,30.97
2022-07-28T14:10:02.443Z,31.09
2022-07-28T14:12:30.770Z,30.40
2022-07-28T14:14:59.101Z,30.62
2022-07-28T14:17:43.510Z,30.33
2022-07-28T14:20:15.660Z,29.97
2022-07-28T14:22:44.821Z,30.50
2022-07-28T14:25:20.561Z,29.91
2022-07-28T14:27:50.719Z,29.88
2022-07-28T14:30:19.558Z,29.63
2022-07-28T14:32:47.567Z,29.59
2022-07-28T14:35:17.006Z,29.59
2022-07-28T14:40:33.291Z,29.19
2022-07-28T14:43:07.650Z,29.22
2022-07-28T14:46:00.531Z,29.29
2022-07-28T14:48:24.149Z,28.80
2022-07-28T14:50:55.310Z,29.14
2022-07-28T14:53:24.065Z,29.04
2022-07-28T14:55:55.997Z,28.81
2022-07-28T14:58:23.986Z,28.92
2022-07-28T15:00:52.144Z,28.83
2022-07-28T15:03:20.405Z,29.03
2022-07-28T15:05:48.412Z,28.98
2022-07-28T15:08:17.886Z,28.49
2022-07-28T15:10:45.868Z,28.71
2022-07-28T15:13:17.120Z,28.77
2022-07-28T15:15:45.389Z,28.66
2022-07-28T15:18:13.642Z,29.02
2022-07-28T15:20:43.182Z,28.84
2022-07-28T15:23:11.602Z,28.99
2022-07-28T15:25:40.955Z,29.01
2022-07-28T15:28:09.170Z,28.96
2022-07-28T15:30:41.400Z,29.10
2022-07-28T15:33:17.895Z,29.17
2022-07-28T15:35:58.113Z,29.25
2022-07-28T15:38:29.160Z,29.02
2022-07-28T15:40:59.692Z,28.97
2022-07-28T15:43:28.108Z,28.90
2022-07-28T15:45:57.323Z,28.80
2022-07-28T15:48:25.598Z,28.83
2022-07-28T15:50:53.742Z,28.47
2022-07-28T15:53:21.800Z,28.44
2022-07-28T15:55:51.529Z,28.34
2022-07-28T15:58:22.035Z,28.42
2022-07-28T16:00:50.380Z,28.32
2022-07-28T16:03:18.860Z,28.64
2022-07-28T16:05:49.732Z,28.61
2022-07-28T16:08:22.975Z,28.61
2022-07-28T16:10:52.372Z,28.78
2022-07-28T16:13:36.450Z,28.75
2022-07-28T16:16:08.075Z,28.98
2022-07-28T16:18:37.280Z,28.92
2022-07-28T16:21:05.856Z,28.66
2022-07-28T16:23:34.728Z,28.81
2022-07-28T16:26:04.995Z,28.86
2022-07-28T16:28:34.491Z,28.61
2022-07-28T16:31:02.627Z,28.59
2022-07-28T16:33:33.670Z,28.89
2022-07-28T16:36:02.333Z,29.26
2022-07-28T16:38:30.507Z,29.03
2022-07-28T16:40:58.656Z,29.12
2022-07-28T16:43:26.755Z,29.32
2022-07-28T16:45:56.355Z,29.19
2022-07-28T16:48:24.473Z,28.79
2022-07-28T16:50:52.520Z,28.50
2022-07-28T16:53:20.577Z,28.41
2022-07-28T16:55:48.871Z,28.29
2022-07-28T16:58:17.991Z,28.11
2022-07-28T17:00:46.059Z,27.98
2022-07-28T17:03:16.875Z,27.94
2022-07-28T17:05:45.315Z,27.87
2022-07-28T17:08:13.519Z,27.76
2022-07-28T17:10:41.686Z,27.64
2022-07-28T17:13:11.902Z,27.62
2022-07-28T17:15:41.433Z,27.59
2022-07-28T17:18:09.613Z,27.57
2022-07-28T17:20:42.612Z,27.67
2022-07-28T17:23:11.433Z,27.48
2022-07-28T17:28:28.468Z,27.31
2022-07-28T17:30:56.878Z,27.33
2022-07-28T17:33:25.342Z,27.23
2022-07-28T17:35:56.073Z,27.12
2022-07-28T17:38:31.017Z,27.15
2022-07-28T17:41:03.724Z,27.09
2022-07-28T17:43:32.741Z,27.05
2022-07-28T17:46:01.178Z,26.97
2022-07-28T17:48:31.075Z,26.81
2022-07-28T17:51:00.651Z,26.78
2022-07-28T17:53:28.761Z,26.75
2022-07-28T17:56:01.021Z,26.67
2022-07-28T17:58:32.184Z,26.59
2022-07-28T18:01:10.154Z,26.55
2022-07-28T18:03:58.163Z,26.64
2022-07-28T18:06:33.734Z,26.52
2022-07-28T18:09:05.679Z,26.46
2022-07-28T18:11:43.377Z,26.39
2022-07-28T18:14:24.934Z,26.27
2022-07-28T18:16:53.066Z,26.23
2022-07-28T18:19:21.202Z,26.01
2022-07-28T18:21:50.674Z,25.83
2022-07-28T18:24:21.631Z,25.66
2022-07-28T18:26:49.746Z,25.67
2022-07-28T18:29:19.196Z,25.46
2022-07-28T18:31:47.489Z,25.40
2022-07-28T18:34:16.406Z,25.23
2022-07-28T18:36:45.736Z,25.28
2022-07-28T18:39:15.298Z,25.22
2022-07-28T18:41:46.331Z,25.20
2022-07-28T18:44:15.219Z,25.07
2022-07-28T18:46:43.856Z,24.99
2022-07-28T18:49:12.070Z,25.08
2022-07-28T18:51:40.222Z,25.06
2022-07-28T18:54:21.499Z,25.08
2022-07-28T18:56:53.048Z,25.17
2022-07-28T18:59:21.159Z,25.00
2022-07-28T19:01:49.301Z,24.99
2022-07-28T19:04:17.856Z,25.04
2022-07-28T19:06:46.211Z,24.87
2022-07-28T19:09:15.792Z,24.76
2022-07-28T19:11:46.262Z,24.67
2022-07-28T19:14:15.869Z,24.67
2022-07-28T19:16:44.465Z,24.60
2022-07-28T19:19:12.915Z,24.53
2022-07-28T19:21:43.471Z,24.45
2022-07-28T19:24:12.385Z,24.22
2022-07-28T19:26:43.372Z,24.14
2022-07-28T19:29:11.723Z,24.16
2022-07-28T19:31:41.310Z,24.01
2022-07-28T19:34:09.571Z,24.03
2022-07-28T19:36:37.815Z,23.88
2022-07-28T19:39:05.995Z,23.84
2022-07-28T19:41:34.200Z,24.18
2022-07-28T19:44:03.656Z,23.99
2022-07-28T19:46:31.709Z,24.02
2022-07-28T19:48:59.900Z,24.05
2022-07-28T19:51:28.148Z,24.22
2022-07-28T19:53:58.526Z,24.15
2022-07-28T19:56:31.580Z,24.04
2022-07-28T19:59:00.239Z,24.19
2022-07-28T20:01:30.026Z,24.32
2022-07-28T20:04:03.133Z,24.24
2022-07-28T20:06:32.996Z,23.99
2022-07-28T20:09:01.626Z,23.94
2022-07-28T20:11:30.013Z,23.96
2022-07-28T20:13:58.125Z,23.81
2022-07-28T20:16:26.382Z,23.87
2022-07-28T20:18:56.875Z,23.68
2022-07-28T20:21:26.135Z,23.70
2022-07-28T20:23:55.547Z,23.51
2022-07-28T20:26:25.820Z,23.53
2022-07-28T20:28:54.063Z,23.51
2022-07-28T20:31:22.247Z,23.44
2022-07-28T20:33:50.810Z,23.60
2022-07-28T20:36:20.263Z,23.47
2022-07-28T20:38:48.145Z,23.36
2022-07-28T20:41:16.256Z,23.32
2022-07-28T20:43:44.482Z,23.32
2022-07-28T20:46:12.600Z,23.47
2022-07-28T20:48:40.727Z,23.40
2022-07-28T20:51:08.927Z,23.27
2022-07-28T20:53:38.399Z,23.34
2022-07-28T20:56:06.332Z,23.55
2022-07-28T20:58:34.448Z,23.43
2022-07-28T21:01:02.847Z,23.34
2022-07-28T21:03:30.960Z,23.16
2022-07-28T21:05:59.110Z,23.19
2022-07-28T21:08:27.339Z,23.11
2022-07-28T21:10:56.878Z,22.98
2022-07-28T21:13:25.003Z,22.91
2022-07-28T21:15:53.194Z,22.79
2022-07-28T21:18:21.269Z,22.61
2022-07-28T21:20:49.455Z,22.58
2022-07-28T21:23:18.789Z,22.47
2022-07-28T21:25:48.493Z,22.37
2022-07-28T21:28:35.447Z,22.35
2022-07-28T21:31:03.579Z,22.36
2022-07-28T21:33:31.720Z,22.36
2022-07-28T21:35:59.789Z,22.30
2022-07-28T21:38:27.994Z,22.34
2022-07-28T21:40:57.101Z,22.23
2022-07-28T21:43:26.578Z,22.12
2022-07-28T21:45:54.826Z,22.02
2022-07-28T21:48:24.981Z,22.10
2022-07-28T21:50:54.031Z,22.02
2022-07-28T21:53:22.368Z,21.94
2022-07-28T21:55:50.561Z,21.88
2022-07-28T21:58:18.599Z,21.86
2022-07-28T22:00:48.178Z,22.07
2022-07-28T22:03:16.399Z,21.95
2022-07-28T22:05:44.857Z,21.78
2022-07-28T22:08:13.177Z,21.71
2022-07-28T22:10:41.641Z,21.66
2022-07-28T22:13:09.817Z,21.69
2022-07-28T22:15:38.260Z,21.73
2022-07-28T22:18:07.806Z,21.84
2022-07-28T22:20:35.694Z,21.82
2022-07-28T22:23:03.889Z,21.91
2022-07-28T22:25:46.809Z,22.00
2022-07-28T22:28:16.108Z,22.20
2022-07-28T22:30:46.518Z,22.15
2022-07-28T22:33:16.044Z,22.26
2022-07-28T22:35:44.014Z,22.39
2022-07-28T22:38:12.111Z,22.40
2022-07-28T22:40:40.172Z,22.46
2022-07-28T22:43:08.200Z,22.38
2022-07-28T22:45:50.355Z,22.40
2022-07-28T22:48:20.969Z,22.40
2022-07-28T22:50:48.953Z,22.38
2022-07-28T22:53:17.057Z,22.38
2022-07-28T22:55:45.346Z,22.40
2022-07-28T22:58:13.523Z,22.40
2022-07-28T23:00:42.120Z,22.31
2022-07-28T23:03:13.114Z,22.29
2022-07-28T23:05:44.557Z,22.07
2022-07-28T23:08:13.061Z,21.88
2022-07-28T23:10:41.188Z,21.77
2022-07-28T23:13:09.251Z,21.66
2022-07-28T23:15:41.342Z,21.42
2022-07-28T23:18:10.257Z,21.25
2022-07-28T23:20:39.237Z,21.17
2022-07-28T23:23:09.000Z,21.21
2022-07-28T23:25:40.320Z,21.14
2022-07-28T23:28:08.737Z,21.10
2022-07-28T23:30:36.976Z,21.03
2022-07-28T23:33:05.082Z,20.91
2022-07-28T23:35:33.378Z,20.76
2022-07-28T23:38:01.505Z,20.60
2022-07-28T23:40:31.254Z,20.46
2022-07-28T23:42:59.379Z,20.34
2022-07-28T23:45:27.807Z,20.26
2022-07-28T23:47:58.825Z,20.19
2022-07-28T23:50:27.329Z,20.15
2022-07-28T23:52:55.475Z,20.12
2022-07-28T23:55:25.671Z,20.13
2022-07-28T23:57:55.153Z,20.26
